createdAt,value
2022-10-09T00:01:40.574Z,3.00
2022-10-09T00:04:07.283Z,4.97
2022-10-09T00:06:34.342Z,3.27
2022-10-09T00:09:02.234Z,3.53
2022-10-09T00:11:29.035Z,3.83
2022-10-09T00:13:56.193Z,2.50
2022-10-09T00:19:07.357Z,2.87
2022-10-09T00:24:18.655Z,2.57
2022-10-09T00:26:46.877Z,2.73
2022-10-09T00:29:13.619Z,2.67
2022-10-09T00:31:40.275Z,2.90
2022-10-09T00:34:06.966Z,2.33
2022-10-09T00:36:33.574Z,4.97
2022-10-09T00:39:00.286Z,4.33
2022-10-09T00:44:31.625Z,4.67
2022-10-09T00:46:58.378Z,2.87
2022-10-09T00:49:28.409Z,2.70
2022-10-09T00:51:55.540Z,4.50
2022-10-09T00:54:22.838Z,2.80
2022-10-09T00:56:49.561Z,2.10
2022-10-09T00:59:16.453Z,3.23
2022-10-09T01:01:43.289Z,2.90
2022-10-09T01:04:10.069Z,3.13
2022-10-09T01:06:42.726Z,3.30
2022-10-09T01:09:12.218Z,2.87
2022-10-09T01:11:49.822Z,4.00
2022-10-09T01:14:16.508Z,2.00
2022-10-09T01:16:48.935Z,2.23
2022-10-09T01:19:20.793Z,3.03
2022-10-09T01:21:52.826Z,2.40
2022-10-09T01:24:34.924Z,3.77
2022-10-09T01:27:10.903Z,2.30
2022-10-09T01:29:50.735Z,3.13
2022-10-09T01:32:18.733Z,2.93
2022-10-09T01:34:46.162Z,3.57
2022-10-09T01:39:57.788Z,2.97
2022-10-09T01:45:08.861Z,5.27
2022-10-09T01:47:35.516Z,5.33
2022-10-09T01:50:20.836Z,3.40
2022-10-09T01:55:41.774Z,5.03
2022-10-09T01:58:11.352Z,3.67
2022-10-09T02:00:39.811Z,4.13
2022-10-09T02:03:07.238Z,3.20
2022-10-09T02:05:33.998Z,3.60
2022-10-09T02:08:00.605Z,4.83
2022-10-09T02:10:27.261Z,5.70
2022-10-09T02:12:55.141Z,4.67
2022-10-09T02:15:21.859Z,1.90
2022-10-09T02:17:49.091Z,3.90
2022-10-09T02:20:19.376Z,3.20
2022-10-09T02:22:46.420Z,5.80
2022-10-09T02:25:13.164Z,4.30
2022-10-09T02:27:39.822Z,3.67
2022-10-09T02:30:07.336Z,3.50
2022-10-09T02:32:34.028Z,4.13
2022-10-09T02:35:00.703Z,5.47
2022-10-09T02:37:27.393Z,5.63
2022-10-09T02:39:53.993Z,4.03
2022-10-09T02:42:20.773Z,5.17
2022-10-09T02:44:47.378Z,4.63
2022-10-09T02:47:14.055Z,3.83
2022-10-09T02:49:41.197Z,4.37
2022-10-09T02:52:07.998Z,3.20
2022-10-09T02:54:34.668Z,4.43
2022-10-09T02:57:01.468Z,4.77
2022-10-09T02:59:28.101Z,2.87
2022-10-09T03:01:55.880Z,4.03
2022-10-09T03:04:22.601Z,5.53
2022-10-09T03:06:49.250Z,3.60
2022-10-09T03:09:15.869Z,4.33
2022-10-09T03:11:42.567Z,6.27
2022-10-09T03:14:09.182Z,4.60
2022-10-09T03:16:35.904Z,4.67
2022-10-09T03:19:02.604Z,2.60
2022-10-09T03:21:29.287Z,5.13
2022-10-09T03:23:56.116Z,5.43
2022-10-09T03:26:23.540Z,4.60
2022-10-09T03:28:50.489Z,5.03
2022-10-09T03:31:33.405Z,7.33
2022-10-09T03:34:04.446Z,4.70
2022-10-09T03:36:31.043Z,4.53
2022-10-09T03:38:57.721Z,6.37
2022-10-09T03:41:24.384Z,4.40
2022-10-09T03:43:51.158Z,2.57
2022-10-09T03:46:17.904Z,5.33
2022-10-09T03:48:44.655Z,5.03
2022-10-09T03:51:11.255Z,6.07
2022-10-09T03:53:37.938Z,6.03
2022-10-09T03:56:04.642Z,4.50
2022-10-09T03:58:31.379Z,6.47
2022-10-09T04:00:58.034Z,7.30
2022-10-09T04:03:24.780Z,5.80
2022-10-09T04:05:51.382Z,12.13
2022-10-09T04:08:18.136Z,2.80
2022-10-09T04:10:44.954Z,5.50
2022-10-09T04:13:11.756Z,8.30
2022-10-09T04:15:38.609Z,8.93
2022-10-09T04:18:05.492Z,5.67
2022-10-09T04:20:32.229Z,6.20
2022-10-09T04:22:58.928Z,4.00
2022-10-09T04:25:25.547Z,4.77
2022-10-09T04:27:52.254Z,4.13
2022-10-09T04:30:18.906Z,4.23
2022-10-09T04:32:48.398Z,5.60
2022-10-09T04:35:15.663Z,4.73
2022-10-09T04:37:42.394Z,5.80
2022-10-09T04:40:09.342Z,4.83
2022-10-09T04:42:35.981Z,6.17
2022-10-09T04:45:02.607Z,6.77
2022-10-09T04:47:29.451Z,5.60
2022-10-09T04:49:56.080Z,5.70
2022-10-09T04:52:22.975Z,5.50
2022-10-09T04:54:49.648Z,4.83
2022-10-09T04:57:16.385Z,3.40
2022-10-09T04:59:43.052Z,4.80
2022-10-09T05:02:09.934Z,5.93
2022-10-09T05:04:37.034Z,3.73
2022-10-09T05:07:03.813Z,4.60
2022-10-09T05:09:30.508Z,2.60
2022-10-09T05:11:57.249Z,3.17
2022-10-09T05:14:23.929Z,6.67
2022-10-09T05:17:12.579Z,4.37
2022-10-09T05:19:39.154Z,3.93
2022-10-09T05:24:50.220Z,4.67
2022-10-09T05:27:16.982Z,6.03
2022-10-09T05:29:43.845Z,9.10
2022-10-09T05:32:10.532Z,6.70
2022-10-09T05:34:37.348Z,6.40
2022-10-09T05:37:04.050Z,6.97
2022-10-09T05:39:32.406Z,6.53
2022-10-09T05:41:59.062Z,4.53
2022-10-09T05:44:25.749Z,5.17
2022-10-09T05:46:52.403Z,4.70
2022-10-09T05:49:19.247Z,4.30
2022-10-09T05:51:45.950Z,6.47
2022-10-09T05:54:13.542Z,10.13
2022-10-09T05:56:40.220Z,7.93
2022-10-09T05:59:07.705Z,7.93
2022-10-09T06:01:35.151Z,5.67
2022-10-09T06:04:02.075Z,6.77
2022-10-09T06:06:30.091Z,8.30
2022-10-09T06:08:56.889Z,6.30
2022-10-09T06:11:24.605Z,5.17
2022-10-09T06:13:51.465Z,8.47
2022-10-09T06:16:18.207Z,10.20
2022-10-09T06:18:49.344Z,7.90
2022-10-09T06:21:16.333Z,7.30
2022-10-09T06:23:43.095Z,5.80
2022-10-09T06:26:11.558Z,7.17
2022-10-09T06:28:38.683Z,3.03
2022-10-09T06:31:06.495Z,4.83
2022-10-09T06:33:33.751Z,5.70
2022-10-09T06:36:09.819Z,5.03
2022-10-09T06:38:37.319Z,4.83
2022-10-09T06:41:10.795Z,5.60
2022-10-09T06:43:37.733Z,9.73
2022-10-09T06:46:04.996Z,5.80
2022-10-09T06:48:32.286Z,6.13
2022-10-09T06:53:50.884Z,6.43
2022-10-09T06:59:02.408Z,5.13
2022-10-09T07:01:32.656Z,3.10
2022-10-09T07:04:00.369Z,7.00
2022-10-09T07:06:27.802Z,4.40
2022-10-09T07:08:56.775Z,5.00
2022-10-09T07:11:24.546Z,4.47
2022-10-09T07:13:52.935Z,4.50
2022-10-09T07:16:29.538Z,5.70
2022-10-09T07:18:56.402Z,5.97
2022-10-09T07:21:24.074Z,4.30
2022-10-09T07:23:51.024Z,6.47
2022-10-09T07:26:18.694Z,3.80
2022-10-09T07:28:45.806Z,3.37
2022-10-09T07:31:12.924Z,4.13
2022-10-09T07:33:41.787Z,5.20
2022-10-09T07:36:08.800Z,2.27
2022-10-09T07:38:35.761Z,6.40
2022-10-09T07:41:06.482Z,5.93
2022-10-09T07:43:35.133Z,3.63
2022-10-09T07:46:02.331Z,5.00
2022-10-09T07:48:29.497Z,2.80
2022-10-09T07:50:56.446Z,4.23
2022-10-09T07:53:23.251Z,5.87
2022-10-09T07:55:50.038Z,3.27
2022-10-09T07:58:16.989Z,4.17
2022-10-09T08:00:44.957Z,3.70
2022-10-09T08:03:12.954Z,5.43
2022-10-09T08:05:39.625Z,5.93
2022-10-09T08:08:06.452Z,9.97
2022-10-09T08:10:33.296Z,2.40
2022-10-09T08:13:00.260Z,3.77
2022-10-09T08:15:27.178Z,3.90
2022-10-09T08:17:54.400Z,9.93
2022-10-09T08:20:21.341Z,3.93
2022-10-09T08:25:36.414Z,2.40
2022-10-09T08:28:03.520Z,3.50
2022-10-09T08:30:30.480Z,6.10
2022-10-09T08:32:57.444Z,4.97
2022-10-09T08:38:17.823Z,3.43
2022-10-09T08:43:47.778Z,2.60
2022-10-09T08:46:20.622Z,6.73
2022-10-09T08:48:47.976Z,5.03
2022-10-09T08:51:22.549Z,6.53
2022-10-09T08:53:54.851Z,4.77
2022-10-09T08:56:21.715Z,3.40
2022-10-09T08:58:48.744Z,3.77
2022-10-09T09:01:22.314Z,3.47
2022-10-09T09:04:16.030Z,3.93
2022-10-09T09:06:45.668Z,4.00
2022-10-09T09:09:24.906Z,5.27
2022-10-09T09:12:03.864Z,4.17
2022-10-09T09:14:50.944Z,5.80
2022-10-09T09:17:37.168Z,4.77
2022-10-09T09:20:11.401Z,4.53
2022-10-09T09:22:40.574Z,4.57
2022-10-09T09:25:18.329Z,4.47
2022-10-09T09:27:45.175Z,2.90
2022-10-09T09:30:16.459Z,3.03
2022-10-09T09:33:04.684Z,4.83
2022-10-09T09:35:36.903Z,3.83
2022-10-09T09:38:03.655Z,2.73
2022-10-09T09:40:36.711Z,4.33
2022-10-09T09:43:05.075Z,4.00
2022-10-09T09:45:31.913Z,3.07
2022-10-09T09:48:00.264Z,4.57
2022-10-09T09:50:48.659Z,6.67
2022-10-09T09:53:27.689Z,4.53
2022-10-09T09:55:55.960Z,3.43
2022-10-09T09:58:22.645Z,3.77
2022-10-09T10:03:48.208Z,4.80
2022-10-09T10:06:20.887Z,5.67
2022-10-09T10:08:57.397Z,4.20
2022-10-09T10:11:24.121Z,6.83
2022-10-09T10:13:50.930Z,3.17
2022-10-09T10:16:30.947Z,2.77
2022-10-09T10:18:57.774Z,3.73
2022-10-09T10:21:24.462Z,8.80
2022-10-09T10:23:54.871Z,3.23
2022-10-09T10:26:36.558Z,4.97
2022-10-09T10:29:12.170Z,3.77
2022-10-09T10:31:42.081Z,3.50
2022-10-09T10:34:14.759Z,5.40
2022-10-09T10:36:41.521Z,4.37
2022-10-09T10:39:45.054Z,3.57
2022-10-09T10:42:35.132Z,8.30
2022-10-09T10:45:04.267Z,3.00
2022-10-09T10:47:31.351Z,3.67
2022-10-09T10:49:58.125Z,1.43
2022-10-09T10:52:30.883Z,4.63
2022-10-09T10:55:12.139Z,3.67
2022-10-09T10:57:47.578Z,2.90
2022-10-09T11:00:16.230Z,4.63
2022-10-09T11:02:46.099Z,3.20
2022-10-09T11:05:28.069Z,4.17
2022-10-09T11:08:13.630Z,3.57
2022-10-09T11:10:58.481Z,4.47
2022-10-09T11:13:30.469Z,6.40
2022-10-09T11:19:21.024Z,4.97
2022-10-09T11:21:51.374Z,4.67
2022-10-09T11:24:37.349Z,4.57
2022-10-09T11:27:10.535Z,2.83
2022-10-09T11:29:40.382Z,2.87
2022-10-09T11:35:14.410Z,4.27
2022-10-09T11:37:43.638Z,3.97
2022-10-09T11:40:13.560Z,3.07
2022-10-09T11:42:40.311Z,2.87
2022-10-09T11:45:29.304Z,3.50
2022-10-09T11:48:00.382Z,2.80
2022-10-09T11:50:46.342Z,5.97
2022-10-09T11:53:13.931Z,4.57
2022-10-09T11:55:41.002Z,3.47
2022-10-09T11:58:16.307Z,4.50
2022-10-09T12:00:43.361Z,1.67
2022-10-09T12:03:33.459Z,2.73
2022-10-09T12:06:08.026Z,5.70
2022-10-09T12:08:35.128Z,4.00
2022-10-09T12:11:17.739Z,5.10
2022-10-09T12:16:42.316Z,2.03
2022-10-09T12:19:20.670Z,3.10
2022-10-09T12:21:49.139Z,2.60
2022-10-09T12:24:16.639Z,4.43
2022-10-09T12:26:43.618Z,4.67
2022-10-09T12:29:29.630Z,2.17
2022-10-09T12:31:57.377Z,3.23
2022-10-09T12:34:43.129Z,3.40
2022-10-09T12:37:11.212Z,3.43
2022-10-09T12:39:38.178Z,3.73
2022-10-09T12:42:05.151Z,2.70
2022-10-09T12:44:35.243Z,3.40
2022-10-09T12:47:02.995Z,3.27
2022-10-09T12:49:29.949Z,2.73
2022-10-09T12:51:57.348Z,4.00
2022-10-09T12:54:27.546Z,3.13
2022-10-09T12:56:55.018Z,3.93
2022-10-09T12:59:22.262Z,3.40
2022-10-09T13:01:49.247Z,4.33
2022-10-09T13:04:30.127Z,1.70
2022-10-09T13:06:57.176Z,4.23
2022-10-09T13:09:25.316Z,5.80
2022-10-09T13:11:59.152Z,4.30
2022-10-09T13:14:32.349Z,4.70
2022-10-09T13:17:37.243Z,3.57
2022-10-09T13:20:18.867Z,3.13
2022-10-09T13:22:58.762Z,4.20
2022-10-09T13:25:46.486Z,4.13
2022-10-09T13:31:06.319Z,4.30
2022-10-09T13:33:33.342Z,2.20
2022-10-09T13:36:00.135Z,2.40
2022-10-09T13:38:29.244Z,2.20
2022-10-09T13:40:59.822Z,3.37
2022-10-09T13:43:27.386Z,3.47
2022-10-09T13:45:54.207Z,3.50
2022-10-09T13:48:21.518Z,3.13
2022-10-09T13:50:48.388Z,4.90
2022-10-09T13:53:15.063Z,2.37
2022-10-09T13:55:42.142Z,3.60
2022-10-09T13:58:08.885Z,3.10
2022-10-09T14:00:37.187Z,3.67
2022-10-09T14:03:04.340Z,3.37
2022-10-09T14:05:31.407Z,5.00
2022-10-09T14:07:58.133Z,4.53
2022-10-09T14:10:24.997Z,4.43
2022-10-09T14:12:52.119Z,3.50
2022-10-09T14:15:18.987Z,4.30
2022-10-09T14:17:45.759Z,3.97
2022-10-09T14:20:12.791Z,2.83
2022-10-09T14:22:39.490Z,2.60
2022-10-09T14:25:06.599Z,2.80
2022-10-09T14:30:05.241Z,5.10
2022-10-09T14:32:31.944Z,2.47
2022-10-09T14:34:58.715Z,3.37
2022-10-09T14:37:40.551Z,3.40
2022-10-09T14:40:09.127Z,1.30
2022-10-09T14:42:36.597Z,2.17
2022-10-09T14:45:03.514Z,3.03
2022-10-09T14:47:30.244Z,5.70
2022-10-09T14:49:57.065Z,3.70
2022-10-09T14:52:23.772Z,2.63
2022-10-09T14:54:50.569Z,3.30
2022-10-09T14:57:17.186Z,6.33
2022-10-09T14:59:44.031Z,3.43
2022-10-09T15:02:13.068Z,3.10
2022-10-09T15:04:40.292Z,11.80
2022-10-09T15:07:06.987Z,4.20
2022-10-09T15:12:18.285Z,5.47
2022-10-09T15:17:29.720Z,5.30
2022-10-09T15:19:56.394Z,3.57
2022-10-09T15:22:23.287Z,2.97
2022-10-09T15:24:50.006Z,3.97
2022-10-09T15:27:16.792Z,5.03
2022-10-09T15:29:43.534Z,3.20
2022-10-09T15:32:10.493Z,1.87
2022-10-09T15:34:40.848Z,3.30
2022-10-09T15:37:08.384Z,4.53
2022-10-09T15:39:35.750Z,6.40
2022-10-09T15:42:03.616Z,8.17
2022-10-09T15:44:33.013Z,7.87
2022-10-09T15:47:00.663Z,7.77
2022-10-09T15:49:27.341Z,8.40
2022-10-09T15:51:54.445Z,10.67
2022-10-09T15:54:21.216Z,10.73
2022-10-09T15:56:48.028Z,9.57
2022-10-09T15:59:16.862Z,9.77
2022-10-09T16:01:43.715Z,9.40
2022-10-09T16:04:13.028Z,9.17
2022-10-09T16:06:40.092Z,7.60
2022-10-09T16:09:06.811Z,16.97
2022-10-09T16:11:34.715Z,8.87
2022-10-09T16:14:01.561Z,8.20
2022-10-09T16:16:28.399Z,5.90
2022-10-09T16:18:55.147Z,5.17
2022-10-09T16:21:25.992Z,6.20
2022-10-09T16:23:58.097Z,9.20
2022-10-09T16:26:25.735Z,11.77
2022-10-09T16:28:52.607Z,9.67
2022-10-09T16:31:23.513Z,7.00
2022-10-09T16:33:50.257Z,5.97
2022-10-09T16:36:16.958Z,11.37
2022-10-09T16:38:44.200Z,8.43
2022-10-09T16:43:57.980Z,7.37
2022-10-09T16:46:25.915Z,13.37
2022-10-09T16:48:52.992Z,7.73
2022-10-09T16:51:20.964Z,8.17
2022-10-09T16:53:50.923Z,10.00
2022-10-09T16:56:20.060Z,6.93
2022-10-09T16:58:46.901Z,7.23
2022-10-09T17:01:13.831Z,10.43
2022-10-09T17:03:41.554Z,9.03
2022-10-09T17:06:14.124Z,11.57
2022-10-09T17:08:40.955Z,13.67
2022-10-09T17:11:10.750Z,8.27
2022-10-09T17:13:37.618Z,9.57
2022-10-09T17:16:07.618Z,10.43
2022-10-09T17:18:35.097Z,11.70
2022-10-09T17:21:03.393Z,16.47
2022-10-09T17:23:30.183Z,14.57
2022-10-09T17:25:59.364Z,17.40
2022-10-09T17:28:26.185Z,15.43
2022-10-09T17:30:52.835Z,56.70
2022-10-09T17:33:20.148Z,31.07
2022-10-09T17:35:47.453Z,52.90
2022-10-09T17:38:14.203Z,52.93
2022-10-09T17:40:41.043Z,48.63
2022-10-09T17:43:09.375Z,33.90
2022-10-09T17:45:42.444Z,21.83
2022-10-09T17:48:10.690Z,17.03
2022-10-09T17:50:37.831Z,22.97
2022-10-09T17:53:04.778Z,30.80
2022-10-09T17:55:31.555Z,38.20
2022-10-09T17:57:58.957Z,33.03
2022-10-09T18:00:25.597Z,43.27
2022-10-09T18:02:52.356Z,47.47
2022-10-09T18:05:18.970Z,51.17
2022-10-09T18:07:45.848Z,53.70
2022-10-09T18:10:16.265Z,50.03
2022-10-09T18:12:43.129Z,48.33
2022-10-09T18:15:10.856Z,56.27
2022-10-09T18:17:37.824Z,70.63
2022-10-09T18:20:04.931Z,59.33
2022-10-09T18:22:31.785Z,53.77
2022-10-09T18:24:59.643Z,42.63
2022-10-09T18:27:31.297Z,34.33
2022-10-09T18:29:59.301Z,40.10
2022-10-09T18:32:26.102Z,40.93
2022-10-09T18:34:53.270Z,40.83
2022-10-09T18:37:20.544Z,45.63
2022-10-09T18:39:48.649Z,85.17
2022-10-09T18:42:15.371Z,59.30
2022-10-09T18:44:43.218Z,53.57
2022-10-09T18:47:11.935Z,36.27
2022-10-09T18:49:40.654Z,43.80
2022-10-09T18:52:07.921Z,80.60
2022-10-09T18:54:35.449Z,124.70
2022-10-09T18:57:03.744Z,81.40
2022-10-09T18:59:31.735Z,82.80
2022-10-09T19:01:58.473Z,138.63
2022-10-09T19:04:26.390Z,99.83
2022-10-09T19:06:53.673Z,95.80
2022-10-09T19:09:20.823Z,109.60
2022-10-09T19:11:47.491Z,69.77
2022-10-09T19:14:15.872Z,73.67
2022-10-09T19:16:42.586Z,73.43
2022-10-09T19:19:10.362Z,69.77
2022-10-09T19:21:39.493Z,62.23
2022-10-09T19:24:07.235Z,64.37
2022-10-09T19:26:35.338Z,68.57
2022-10-09T19:29:02.456Z,79.97
2022-10-09T19:31:29.712Z,81.00
2022-10-09T19:33:56.440Z,87.93
2022-10-09T19:36:23.121Z,71.73
2022-10-09T19:38:51.671Z,72.50
2022-10-09T19:41:18.403Z,78.93
2022-10-09T19:43:46.268Z,82.90
2022-10-09T19:46:14.469Z,80.73
2022-10-09T19:48:42.582Z,82.03
2022-10-09T19:51:19.416Z,79.87
2022-10-09T19:53:46.758Z,84.13
2022-10-09T19:56:18.113Z,81.37
2022-10-09T19:58:45.703Z,74.67
2022-10-09T20:01:14.580Z,77.07
2022-10-09T20:03:41.633Z,75.40
2022-10-09T20:06:11.359Z,71.37
2022-10-09T20:08:38.644Z,65.80
2022-10-09T20:11:05.491Z,60.40
2022-10-09T20:13:32.633Z,55.50
2022-10-09T20:15:59.752Z,61.77
2022-10-09T20:18:28.094Z,60.20
2022-10-09T20:20:54.970Z,60.57
2022-10-09T20:23:24.542Z,63.40
2022-10-09T20:26:00.901Z,61.47
2022-10-09T20:28:28.079Z,54.37
2022-10-09T20:31:00.921Z,50.97
2022-10-09T20:33:27.826Z,53.80
2022-10-09T20:35:54.700Z,64.27
2022-10-09T20:38:25.522Z,47.37
2022-10-09T20:40:53.074Z,54.40
2022-10-09T20:43:19.892Z,56.90
2022-10-09T20:45:46.749Z,53.27
2022-10-09T20:48:13.526Z,48.27
2022-10-09T20:50:40.741Z,60.20
2022-10-09T20:53:07.756Z,61.07
2022-10-09T20:55:34.874Z,61.30
2022-10-09T20:58:01.915Z,52.20
2022-10-09T21:00:31.142Z,46.07
2022-10-09T21:02:58.323Z,48.70
2022-10-09T21:05:25.243Z,57.90
2022-10-09T21:07:52.203Z,54.87
2022-10-09T21:10:19.153Z,55.20
2022-10-09T21:12:45.835Z,58.83
2022-10-09T21:15:12.513Z,55.10
2022-10-09T21:17:39.174Z,52.37
2022-10-09T21:20:06.101Z,51.27
2022-10-09T21:22:33.306Z,52.80
2022-10-09T21:24:59.980Z,50.60
2022-10-09T21:27:26.591Z,59.63
2022-10-09T21:29:53.304Z,50.97
2022-10-09T21:32:19.969Z,55.30
2022-10-09T21:34:46.808Z,53.47
2022-10-09T21:37:21.595Z,62.80
2022-10-09T21:39:49.022Z,54.80
2022-10-09T21:42:15.632Z,54.97
2022-10-09T21:44:42.327Z,56.77
2022-10-09T21:47:11.461Z,50.63
2022-10-09T21:49:38.384Z,54.43
2022-10-09T21:52:05.063Z,58.27
2022-10-09T21:54:32.435Z,46.10
2022-10-09T21:56:59.262Z,62.20
2022-10-09T21:59:26.033Z,53.77
2022-10-09T22:01:53.035Z,61.30
2022-10-09T22:04:19.853Z,58.37
2022-10-09T22:06:46.486Z,57.57
2022-10-09T22:09:13.231Z,60.07
2022-10-09T22:11:39.850Z,47.10
2022-10-09T22:14:06.572Z,43.87
2022-10-09T22:16:33.217Z,63.93
2022-10-09T22:19:00.824Z,51.83
2022-10-09T22:21:27.563Z,54.83
2022-10-09T22:23:54.380Z,65.23
2022-10-09T22:26:21.635Z,55.50
2022-10-09T22:28:48.539Z,58.23
2022-10-09T22:31:22.415Z,50.87
2022-10-09T22:33:49.836Z,58.90
2022-10-09T22:36:17.080Z,48.30
2022-10-09T22:38:44.068Z,52.43
2022-10-09T22:41:11.954Z,58.77
2022-10-09T22:43:38.918Z,59.83
2022-10-09T22:46:15.932Z,61.03
2022-10-09T22:48:43.049Z,46.27
2022-10-09T22:51:10.461Z,51.23
2022-10-09T22:53:37.303Z,50.77
2022-10-09T22:56:07.561Z,54.40
2022-10-09T22:58:34.289Z,60.00
2022-10-09T23:01:17.463Z,50.57
2022-10-09T23:03:44.447Z,53.87
2022-10-09T23:06:12.026Z,57.00
2022-10-09T23:08:38.932Z,59.43
2022-10-09T23:11:05.798Z,49.47
2022-10-09T23:13:32.626Z,53.87
2022-10-09T23:15:59.903Z,47.43
2022-10-09T23:18:26.777Z,45.93
2022-10-09T23:20:53.442Z,45.53
2022-10-09T23:23:20.140Z,47.50
2022-10-09T23:25:46.789Z,50.67
2022-10-09T23:28:13.566Z,50.93
2022-10-09T23:30:40.227Z,49.50
2022-10-09T23:33:07.016Z,52.47
2022-10-09T23:35:33.665Z,52.50
2022-10-09T23:38:00.388Z,46.00
2022-10-09T23:40:27.008Z,50.33
2022-10-09T23:42:53.654Z,51.67
2022-10-09T23:45:20.264Z,47.00
2022-10-09T23:47:49.569Z,44.60
2022-10-09T23:50:16.205Z,47.17
2022-10-09T23:52:42.874Z,49.57
2022-10-09T23:55:09.663Z,46.13
2022-10-09T23:57:37.084Z,44.00
